Time;durP1;ratioP1;P1;durP2;ratioP2;P2;SDS_P1;SDS_P2;PMS_P1;PMS_P2;Temp;Humidity;BMP_temperature;BMP_pressure;BME280_temperature;BME280_humidity;BME280_pressure;Samples;Min_cycle;Max_cycle;Signal;HPM_P1;HPM_P2
2021/06/19 00:01:27;;;;;;;10.80;5.40;;;;;;;;;;5155457;28;20463;-59
2021/06/19 00:03:54;;;;;;;15.83;4.67;;;;;;;;;;5155326;28;20475;-62
2021/06/19 00:06:26;;;;;;;10.17;4.20;;;;;;;;;;5136809;28;20469;-58
2021/06/19 00:08:53;;;;;;;12.97;4.67;;;;;;;;;;5152649;28;20463;-54
2021/06/19 00:11:22;;;;;;;8.60;4.00;;;;;;;;;;5138062;28;20501;-58
2021/06/19 00:13:55;;;;;;;9.23;4.63;;;;;;;;;;5133017;28;20460;-56
2021/06/19 00:16:22;;;;;;;8.90;5.13;;;;;;;;;;5138243;28;20472;-59
2021/06/19 00:18:50;;;;;;;9.13;5.00;;;;;;;;;;5133829;28;20470;-56
2021/06/19 00:21:21;;;;;;;8.00;3.70;;;;;;;;;;5132828;28;20479;-58
2021/06/19 00:23:49;;;;;;;9.50;3.53;;;;;;;;;;5133478;28;20847;-55
2021/06/19 00:26:16;;;;;;;12.10;4.73;;;;;;;;;;5133270;28;20550;-57
2021/06/19 00:31:48;;;;;;;13.53;4.27;;;;;;;;;;5137178;28;20430;-53
2021/06/19 00:34:27;;;;;;;10.13;2.97;;;;;;;;;;5137047;28;20702;-58
2021/06/19 00:37:20;;;;;;;6.60;3.13;;;;;;;;;;5137400;28;20524;-60
2021/06/19 00:39:48;;;;;;;9.63;4.23;;;;;;;;;;5146103;27;20462;-59
2021/06/19 00:42:19;;;;;;;11.00;3.50;;;;;;;;;;5158476;27;20460;-56
2021/06/19 00:45:18;;;;;;;8.27;3.00;;;;;;;;;;5158808;27;20468;-53
2021/06/19 00:47:46;;;;;;;9.30;3.00;;;;;;;;;;5158383;27;20444;-58
2021/06/19 00:50:15;;;;;;;27.70;10.33;;;;;;;;;;5143625;27;20458;-57
2021/06/19 00:52:52;;;;;;;12.73;5.40;;;;;;;;;;5135801;28;20462;-58
2021/06/19 00:55:23;;;;;;;21.30;13.53;;;;;;;;;;5153279;27;20457;-52
2021/06/19 00:57:51;;;;;;;24.17;13.80;;;;;;;;;;5158409;27;20456;-53
2021/06/19 01:00:21;;;;;;;17.73;6.70;;;;;;;;;;5158104;27;20519;-53
2021/06/19 01:02:50;;;;;;;8.30;4.67;;;;;;;;;;5157233;27;20458;-55
2021/06/19 01:05:17;;;;;;;5.50;2.93;;;;;;;;;;5157412;27;20526;-53
2021/06/19 01:07:46;;;;;;;7.67;6.00;;;;;;;;;;5156506;27;20451;-55
2021/06/19 01:10:13;;;;;;;23.83;11.60;;;;;;;;;;5155346;27;20469;-52
2021/06/19 01:12:41;;;;;;;5.00;2.57;;;;;;;;;;5156438;27;20463;-57
2021/06/19 01:15:09;;;;;;;11.37;6.83;;;;;;;;;;5155352;27;20458;-56
2021/06/19 01:17:37;;;;;;;8.37;3.00;;;;;;;;;;5156149;27;20487;-59
2021/06/19 01:20:09;;;;;;;5.87;2.47;;;;;;;;;;5156541;27;20534;-58
2021/06/19 01:22:38;;;;;;;10.10;5.47;;;;;;;;;;5155540;27;20544;-52
2021/06/19 01:25:08;;;;;;;21.90;12.90;;;;;;;;;;5153547;27;20469;-55
2021/06/19 01:27:35;;;;;;;16.80;10.37;;;;;;;;;;5135104;28;20498;-54
2021/06/19 01:30:05;;;;;;;24.43;14.87;;;;;;;;;;5134992;28;20487;-54
2021/06/19 01:32:39;;;;;;;10.73;6.33;;;;;;;;;;5134964;28;20543;-53
2021/06/19 01:35:08;;;;;;;22.80;17.63;;;;;;;;;;5136255;28;20467;-57
2021/06/19 01:37:37;;;;;;;14.17;5.30;;;;;;;;;;5135313;28;20553;-51
2021/06/19 01:40:08;;;;;;;11.07;3.80;;;;;;;;;;5134448;28;20492;-55
2021/06/19 01:42:36;;;;;;;17.80;13.13;;;;;;;;;;5117461;28;20678;-54
2021/06/19 01:45:03;;;;;;;13.00;7.83;;;;;;;;;;5135992;28;20453;-59
2021/06/19 01:47:38;;;;;;;18.70;14.17;;;;;;;;;;5136537;28;20493;-54
2021/06/19 01:50:10;;;;;;;6.87;5.23;;;;;;;;;;5135553;28;20473;-56
2021/06/19 01:52:39;;;;;;;8.33;6.73;;;;;;;;;;5135622;28;20485;-53
2021/06/19 01:55:13;;;;;;;16.40;10.57;;;;;;;;;;5137673;27;20504;-57
2021/06/19 01:57:43;;;;;;;15.80;9.80;;;;;;;;;;5156207;27;20524;-57
2021/06/19 02:00:15;;;;;;;6.63;2.80;;;;;;;;;;5156435;27;20794;-57
2021/06/19 02:02:56;;;;;;;49.83;41.40;;;;;;;;;;5146667;27;20473;-57
2021/06/19 02:05:24;;;;;;;8.43;4.67;;;;;;;;;;5136277;28;20499;-55
2021/06/19 02:07:54;;;;;;;7.77;4.47;;;;;;;;;;5139947;27;20477;-53
2021/06/19 02:10:24;;;;;;;35.27;31.37;;;;;;;;;;5156093;27;20442;-56
2021/06/19 02:12:52;;;;;;;9.20;4.00;;;;;;;;;;5150825;27;20510;-59
2021/06/19 02:15:20;;;;;;;5.87;2.47;;;;;;;;;;5135667;28;20475;-57
2021/06/19 02:17:54;;;;;;;16.77;9.77;;;;;;;;;;5134820;28;20454;-55
2021/06/19 02:20:22;;;;;;;11.67;4.50;;;;;;;;;;5152906;27;20441;-58
2021/06/19 02:22:49;;;;;;;10.30;4.90;;;;;;;;;;5155082;27;20648;-57
2021/06/19 02:25:23;;;;;;;8.67;3.80;;;;;;;;;;5155509;27;20769;-57
2021/06/19 02:27:53;;;;;;;12.23;8.30;;;;;;;;;;5147491;27;20804;-56
2021/06/19 02:30:21;;;;;;;9.23;6.93;;;;;;;;;;5135445;28;20458;-56
2021/06/19 02:33:00;;;;;;;11.80;7.53;;;;;;;;;;5135975;28;20457;-59
2021/06/19 02:35:29;;;;;;;11.37;5.50;;;;;;;;;;5137815;27;20457;-54
2021/06/19 02:37:57;;;;;;;8.07;3.50;;;;;;;;;;5156253;27;20457;-57
2021/06/19 02:40:42;;;;;;;9.10;6.27;;;;;;;;;;5156378;27;20477;-53
2021/06/19 02:43:11;;;;;;;17.40;12.60;;;;;;;;;;5148416;27;20493;-52
2021/06/19 02:45:41;;;;;;;11.20;5.27;;;;;;;;;;5154630;27;20525;-57
2021/06/19 02:48:08;;;;;;;6.47;3.33;;;;;;;;;;5154514;27;20472;-59
2021/06/19 02:50:37;;;;;;;6.47;2.70;;;;;;;;;;5155493;27;20418;-59
2021/06/19 02:53:15;;;;;;;6.60;3.50;;;;;;;;;;5134703;28;20443;-59
2021/06/19 02:55:43;;;;;;;8.07;3.57;;;;;;;;;;5134697;28;20526;-54
2021/06/19 02:58:12;;;;;;;13.77;3.60;;;;;;;;;;5133631;28;20465;-54
2021/06/19 03:00:42;;;;;;;21.27;7.67;;;;;;;;;;5133555;28;20462;-54
2021/06/19 03:03:10;;;;;;;12.50;4.40;;;;;;;;;;5151883;27;20476;-59
2021/06/19 03:05:39;;;;;;;10.13;3.70;;;;;;;;;;5151914;27;20445;-56
2021/06/19 03:08:12;;;;;;;8.03;2.73;;;;;;;;;;5153445;27;20675;-55
2021/06/19 03:10:40;;;;;;;7.23;3.20;;;;;;;;;;5153756;27;20452;-54
2021/06/19 03:13:08;;;;;;;6.40;3.20;;;;;;;;;;5150633;27;20438;-53
2021/06/19 03:15:41;;;;;;;7.90;3.00;;;;;;;;;;5140479;27;20514;-53
2021/06/19 03:18:13;;;;;;;7.10;3.90;;;;;;;;;;5139423;27;21015;-57
2021/06/19 03:20:41;;;;;;;11.50;2.97;;;;;;;;;;5134559;28;20482;-57
2021/06/19 03:23:08;;;;;;;9.07;3.10;;;;;;;;;;5146784;27;20543;-55
2021/06/19 03:25:36;;;;;;;7.77;4.57;;;;;;;;;;5153323;27;20493;-53
2021/06/19 03:28:09;;;;;;;14.23;10.30;;;;;;;;;;5133841;28;20486;-57
2021/06/19 03:30:37;;;;;;;7.63;3.13;;;;;;;;;;5134220;28;20460;-55
2021/06/19 03:33:08;;;;;;;18.23;8.60;;;;;;;;;;5134225;28;20473;-57
2021/06/19 03:35:52;;;;;;;8.20;3.83;;;;;;;;;;5141075;28;20513;-55
2021/06/19 03:38:20;;;;;;;10.13;4.67;;;;;;;;;;5154126;28;20497;-57
2021/06/19 03:40:48;;;;;;;14.00;9.87;;;;;;;;;;5156136;28;20476;-58
2021/06/19 03:43:17;;;;;;;5.17;3.50;;;;;;;;;;5156466;28;20481;-58
2021/06/19 03:45:45;;;;;;;4.30;2.00;;;;;;;;;;5141854;28;20458;-57
2021/06/19 03:48:14;;;;;;;7.43;2.97;;;;;;;;;;5148948;28;20462;-56
2021/06/19 03:50:50;;;;;;;6.20;2.20;;;;;;;;;;5155183;28;20460;-57
2021/06/19 03:53:18;;;;;;;5.40;1.60;;;;;;;;;;5150826;28;20458;-53
2021/06/19 03:55:46;;;;;;;11.63;3.07;;;;;;;;;;5135167;28;20462;-54
2021/06/19 03:58:17;;;;;;;6.80;2.00;;;;;;;;;;5135255;28;20526;-54
2021/06/19 04:00:46;;;;;;;6.53;2.97;;;;;;;;;;5135597;28;20462;-60
2021/06/19 04:03:15;;;;;;;10.70;4.23;;;;;;;;;;5136376;28;20434;-60
2021/06/19 04:05:59;;;;;;;6.60;1.97;;;;;;;;;;5138883;28;20526;-56
2021/06/19 04:08:26;;;;;;;5.13;2.10;;;;;;;;;;5156146;27;20460;-57
2021/06/19 04:10:54;;;;;;;4.37;2.20;;;;;;;;;;5158982;27;20520;-57
2021/06/19 04:13:41;;;;;;;10.03;5.23;;;;;;;;;;5160099;27;20462;-60
2021/06/19 04:16:09;;;;;;;6.10;2.20;;;;;;;;;;5159028;27;20520;-58
2021/06/19 04:18:38;;;;;;;5.53;2.40;;;;;;;;;;5159740;27;20457;-58
2021/06/19 04:21:18;;;;;;;3.40;1.60;;;;;;;;;;5148586;27;20491;-58
2021/06/19 04:23:46;;;;;;;4.80;2.07;;;;;;;;;;5139310;28;20546;-56
2021/06/19 04:26:14;;;;;;;6.33;2.40;;;;;;;;;;5139251;28;20469;-62
2021/06/19 04:28:47;;;;;;;4.50;1.63;;;;;;;;;;5139701;28;20467;-56
2021/06/19 04:31:14;;;;;;;4.20;2.00;;;;;;;;;;5150449;27;20492;-55
2021/06/19 04:33:43;;;;;;;9.17;3.37;;;;;;;;;;5160408;27;20452;-59
2021/06/19 04:36:17;;;;;;;5.60;2.03;;;;;;;;;;5160071;27;20474;-55
2021/06/19 04:38:44;;;;;;;4.20;1.90;;;;;;;;;;5145571;27;20439;-51
2021/06/19 04:41:22;;;;;;;3.90;1.80;;;;;;;;;;5140016;28;20427;-57
2021/06/19 04:44:27;;;;;;;5.97;2.10;;;;;;;;;;5139721;28;20497;-54
2021/06/19 04:46:56;;;;;;;6.03;2.10;;;;;;;;;;5138898;28;20465;-55
2021/06/19 04:49:24;;;;;;;4.60;1.90;;;;;;;;;;5139443;28;20535;-59
2021/06/19 04:52:13;;;;;;;5.00;2.00;;;;;;;;;;5138886;28;20475;-58
2021/06/19 04:54:45;;;;;;;8.70;1.90;;;;;;;;;;5137667;28;20512;-58
2021/06/19 04:57:12;;;;;;;3.90;1.83;;;;;;;;;;5138385;27;20442;-57
2021/06/19 04:59:49;;;;;;;3.47;1.60;;;;;;;;;;5137508;28;20453;-57
2021/06/19 05:02:17;;;;;;;4.17;1.67;;;;;;;;;;5154396;27;20460;-57
2021/06/19 05:04:48;;;;;;;4.43;1.80;;;;;;;;;;5158826;27;20479;-55
2021/06/19 05:07:34;;;;;;;4.60;1.60;;;;;;;;;;5157856;27;20485;-56
2021/06/19 05:10:05;;;;;;;7.60;2.37;;;;;;;;;;5144914;27;20469;-58
2021/06/19 05:12:39;;;;;;;3.47;1.37;;;;;;;;;;5137717;28;20502;-58
2021/06/19 05:15:08;;;;;;;3.30;1.30;;;;;;;;;;5135311;28;20461;-57
2021/06/19 05:17:35;;;;;;;5.80;1.57;;;;;;;;;;5137081;28;20451;-55
2021/06/19 05:20:26;;;;;;;5.33;1.70;;;;;;;;;;5138539;28;20457;-55
2021/06/19 05:23:09;;;;;;;4.70;1.60;;;;;;;;;;5137884;27;20467;-60
2021/06/19 05:26:08;;;;;;;3.53;1.30;;;;;;;;;;5159106;27;20445;-60
2021/06/19 05:28:48;;;;;;;3.30;1.60;;;;;;;;;;5158485;27;20477;-59
2021/06/19 05:31:44;;;;;;;4.67;1.97;;;;;;;;;;5156955;27;20483;-58
2021/06/19 05:34:19;;;;;;;4.23;1.83;;;;;;;;;;5158765;27;20471;-58
2021/06/19 05:37:07;;;;;;;4.70;2.20;;;;;;;;;;5157317;27;20501;-59
2021/06/19 05:39:47;;;;;;;3.30;1.60;;;;;;;;;;5155951;27;20505;-56
2021/06/19 05:42:15;;;;;;;3.50;1.60;;;;;;;;;;5143461;27;20474;-56
2021/06/19 05:44:43;;;;;;;3.70;1.90;;;;;;;;;;5153067;27;20465;-59
2021/06/19 05:47:17;;;;;;;3.70;1.53;;;;;;;;;;5150601;27;20484;-53
2021/06/19 05:49:44;;;;;;;5.40;1.70;;;;;;;;;;5141101;27;20480;-53
2021/06/19 05:52:12;;;;;;;8.37;2.40;;;;;;;;;;5156773;27;20463;-57
2021/06/19 05:54:40;;;;;;;5.10;1.80;;;;;;;;;;5134606;28;20561;-53
2021/06/19 05:57:09;;;;;;;5.97;1.73;;;;;;;;;;5137443;28;20443;-60
2021/06/19 06:02:41;;;;;;;5.00;1.73;;;;;;;;;;5137213;28;20435;-58
2021/06/19 06:05:11;;;;;;;4.73;2.13;;;;;;;;;;5138263;28;20443;-55
2021/06/19 06:07:47;;;;;;;4.57;1.60;;;;;;;;;;5125841;28;20477;-58
2021/06/19 06:10:14;;;;;;;5.00;1.40;;;;;;;;;;5147329;27;20489;-58
2021/06/19 06:12:43;;;;;;;3.00;1.57;;;;;;;;;;5157361;27;20465;-54
2021/06/19 06:15:11;;;;;;;3.97;1.87;;;;;;;;;;5157197;27;20824;-58
2021/06/19 06:17:38;;;;;;;5.73;1.70;;;;;;;;;;5146763;27;20433;-54
2021/06/19 06:20:12;;;;;;;4.20;1.73;;;;;;;;;;5144207;27;20441;-54
2021/06/19 06:22:40;;;;;;;4.20;1.90;;;;;;;;;;5156820;27;20449;-62
2021/06/19 06:25:09;;;;;;;3.27;1.17;;;;;;;;;;5156060;27;20504;-59
2021/06/19 06:27:37;;;;;;;6.70;2.07;;;;;;;;;;5152032;27;20515;-51
2021/06/19 06:30:17;;;;;;;6.30;1.50;;;;;;;;;;5147675;27;20533;-54
2021/06/19 06:32:45;;;;;;;4.00;1.80;;;;;;;;;;5144087;27;20462;-60
2021/06/19 06:35:28;;;;;;;8.63;1.87;;;;;;;;;;5147115;27;20478;-56
2021/06/19 06:37:55;;;;;;;4.43;1.70;;;;;;;;;;5154764;27;20435;-59
2021/06/19 06:40:24;;;;;;;3.30;1.80;;;;;;;;;;5152530;27;20519;-59
2021/06/19 06:42:58;;;;;;;3.53;1.57;;;;;;;;;;5155592;27;20509;-56
2021/06/19 06:45:27;;;;;;;3.73;1.50;;;;;;;;;;5147857;27;20457;-56
2021/06/19 06:47:55;;;;;;;7.70;2.40;;;;;;;;;;5142641;27;20492;-60
2021/06/19 06:50:26;;;;;;;3.27;1.50;;;;;;;;;;5155041;27;20466;-54
2021/06/19 06:52:53;;;;;;;3.93;1.83;;;;;;;;;;5146070;27;20534;-53
2021/06/19 06:55:32;;;;;;;6.17;1.30;;;;;;;;;;5148188;27;20457;-58
2021/06/19 06:58:08;;;;;;;4.70;2.67;;;;;;;;;;5146867;27;20528;-53
2021/06/19 07:00:37;;;;;;;3.37;1.20;;;;;;;;;;5144671;27;20465;-58
2021/06/19 07:03:05;;;;;;;5.23;1.90;;;;;;;;;;5134282;27;20510;-56
2021/06/19 07:05:34;;;;;;;4.60;1.20;;;;;;;;;;5134808;28;20443;-52
2021/06/19 07:08:01;;;;;;;3.33;1.67;;;;;;;;;;5135193;28;20524;-57
2021/06/19 07:10:30;;;;;;;3.20;1.40;;;;;;;;;;5155722;27;20468;-55
2021/06/19 07:13:16;;;;;;;12.10;2.00;;;;;;;;;;5173132;27;20671;-55
2021/06/19 07:15:46;;;;;;;4.50;1.63;;;;;;;;;;5153883;27;20469;-56
2021/06/19 07:18:17;;;;;;;6.33;1.33;;;;;;;;;;5155209;27;20441;-57
2021/06/19 07:20:48;;;;;;;5.00;1.30;;;;;;;;;;5147671;27;20438;-56
2021/06/19 07:23:25;;;;;;;3.77;1.20;;;;;;;;;;5124364;28;20477;-58
2021/06/19 07:25:54;;;;;;;3.93;1.40;;;;;;;;;;5122422;28;20469;-58
2021/06/19 07:28:30;;;;;;;2.77;1.03;;;;;;;;;;5121297;28;20486;-55
2021/06/19 07:31:02;;;;;;;4.33;1.23;;;;;;;;;;5125368;28;20477;-54
2021/06/19 07:33:30;;;;;;;9.73;1.90;;;;;;;;;;5122099;28;20476;-55
2021/06/19 07:36:00;;;;;;;4.27;1.33;;;;;;;;;;5127680;28;20521;-53
2021/06/19 07:38:28;;;;;;;3.60;1.10;;;;;;;;;;5128485;28;20494;-54
2021/06/19 07:40:55;;;;;;;4.90;1.60;;;;;;;;;;5130552;28;20453;-59
2021/06/19 07:43:22;;;;;;;4.90;1.63;;;;;;;;;;5129556;28;20434;-49
2021/06/19 07:49:03;;;;;;;3.50;1.47;;;;;;;;;;5153038;28;20488;-58
2021/06/19 07:51:32;;;;;;;4.57;1.50;;;;;;;;;;5144852;28;20454;-58
2021/06/19 07:54:04;;;;;;;4.17;1.47;;;;;;;;;;5146916;28;20455;-56
2021/06/19 07:56:32;;;;;;;4.20;1.17;;;;;;;;;;5131670;28;20478;-56
2021/06/19 07:59:00;;;;;;;3.57;1.30;;;;;;;;;;5142356;28;20526;-53
2021/06/19 08:01:27;;;;;;;4.00;1.10;;;;;;;;;;5132314;28;20626;-56
2021/06/19 08:04:16;;;;;;;9.27;1.83;;;;;;;;;;5133401;28;20515;-61
2021/06/19 08:06:46;;;;;;;4.27;1.60;;;;;;;;;;5134898;28;20458;-57
2021/06/19 08:09:14;;;;;;;3.90;1.57;;;;;;;;;;5139030;28;20497;-58
2021/06/19 08:11:44;;;;;;;4.10;1.27;;;;;;;;;;5133191;28;20466;-57
2021/06/19 08:14:27;;;;;;;3.30;1.20;;;;;;;;;;5131229;28;20505;-60
2021/06/19 08:17:14;;;;;;;4.37;1.20;;;;;;;;;;5135201;28;20454;-58
2021/06/19 08:19:48;;;;;;;4.50;1.67;;;;;;;;;;5116662;28;20438;-55
2021/06/19 08:22:27;;;;;;;4.27;1.90;;;;;;;;;;5117689;28;20641;-57
2021/06/19 08:24:57;;;;;;;7.17;1.60;;;;;;;;;;5117457;28;20455;-61
2021/06/19 08:27:29;;;;;;;4.33;1.63;;;;;;;;;;5112646;28;20507;-59
2021/06/19 08:30:04;;;;;;;4.80;1.57;;;;;;;;;;5112385;28;20452;-56
2021/06/19 08:32:31;;;;;;;4.10;1.20;;;;;;;;;;5119209;28;20461;-61
2021/06/19 08:34:59;;;;;;;2.90;1.00;;;;;;;;;;5112356;28;20449;-57
2021/06/19 08:37:30;;;;;;;5.40;1.30;;;;;;;;;;5111746;28;20463;-57
2021/06/19 08:40:00;;;;;;;3.47;1.30;;;;;;;;;;5111682;28;20462;-60
2021/06/19 08:42:31;;;;;;;10.53;1.57;;;;;;;;;;5113595;28;20436;-58
2021/06/19 08:45:16;;;;;;;5.70;1.67;;;;;;;;;;5112843;28;20522;-56
2021/06/19 08:47:48;;;;;;;5.30;1.40;;;;;;;;;;5116587;28;20474;-59
2021/06/19 08:50:23;;;;;;;5.30;2.30;;;;;;;;;;5135143;28;20514;-59
2021/06/19 08:52:58;;;;;;;4.83;1.80;;;;;;;;;;5121305;28;20465;-56
2021/06/19 08:55:38;;;;;;;3.90;1.50;;;;;;;;;;5115704;28;20478;-55
2021/06/19 08:58:16;;;;;;;4.00;1.30;;;;;;;;;;5118457;28;20519;-59
2021/06/19 09:00:44;;;;;;;5.50;1.83;;;;;;;;;;5124616;28;20451;-55
2021/06/19 09:03:41;;;;;;;4.07;1.80;;;;;;;;;;5117434;28;20473;-57
2021/06/19 09:06:22;;;;;;;4.27;1.40;;;;;;;;;;5116199;28;20491;-58
2021/06/19 09:09:20;;;;;;;4.40;1.07;;;;;;;;;;5115124;28;20515;-56
2021/06/19 09:11:56;;;;;;;3.27;1.30;;;;;;;;;;5118930;27;21128;-54
2021/06/19 09:14:33;;;;;;;10.30;1.10;;;;;;;;;;5155276;27;20481;-61
2021/06/19 09:17:04;;;;;;;3.33;1.27;;;;;;;;;;5156717;27;20493;-54
2021/06/19 09:19:35;;;;;;;4.70;1.47;;;;;;;;;;5143612;27;20446;-56
2021/06/19 09:22:17;;;;;;;5.33;3.07;;;;;;;;;;5146087;27;20490;-60
2021/06/19 09:24:47;;;;;;;3.60;1.47;;;;;;;;;;5139739;27;20589;-56
2021/06/19 09:27:32;;;;;;;4.67;1.70;;;;;;;;;;5142790;27;20454;-59
2021/06/19 09:30:11;;;;;;;4.90;1.43;;;;;;;;;;5136134;28;20460;-57
2021/06/19 09:32:42;;;;;;;3.03;1.47;;;;;;;;;;5147113;27;20440;-55
2021/06/19 09:35:14;;;;;;;3.73;1.40;;;;;;;;;;5153005;27;20449;-55
2021/06/19 09:37:58;;;;;;;6.10;2.03;;;;;;;;;;5136449;28;20462;-53
2021/06/19 09:40:30;;;;;;;4.87;1.47;;;;;;;;;;5137797;27;20442;-59
2021/06/19 09:46:09;;;;;;;4.40;1.40;;;;;;;;;;5147180;27;20452;-54
2021/06/19 09:48:38;;;;;;;7.10;1.50;;;;;;;;;;5158344;27;20501;-56
2021/06/19 09:51:20;;;;;;;2.90;1.20;;;;;;;;;;5153982;27;20454;-54
2021/06/19 09:53:49;;;;;;;3.43;1.27;;;;;;;;;;5148173;27;20461;-58
2021/06/19 09:56:21;;;;;;;5.40;1.70;;;;;;;;;;5158543;27;20442;-55
2021/06/19 09:58:53;;;;;;;4.30;1.30;;;;;;;;;;5156409;27;20479;-56
2021/06/19 10:01:50;;;;;;;4.20;1.20;;;;;;;;;;5138946;27;20478;-56
2021/06/19 10:06:47;;;;;;;9.03;1.70;;;;;;;;;;5154682;27;20464;-57
2021/06/19 10:09:28;;;;;;;5.80;1.50;;;;;;;;;;5137575;27;20490;-60
2021/06/19 10:12:07;;;;;;;6.60;1.43;;;;;;;;;;5140580;27;20450;-58
2021/06/19 10:14:34;;;;;;;4.97;1.63;;;;;;;;;;5153127;27;20465;-54
2021/06/19 10:17:03;;;;;;;3.57;1.27;;;;;;;;;;5157639;27;20488;-54
2021/06/19 10:22:36;;;;;;;5.90;4.87;;;;;;;;;;5154870;27;20887;-56
2021/06/19 10:25:07;;;;;;;5.70;1.57;;;;;;;;;;5149389;27;20456;-55
2021/06/19 10:27:38;;;;;;;3.43;1.40;;;;;;;;;;5135827;27;20447;-56
2021/06/19 10:30:13;;;;;;;5.10;1.50;;;;;;;;;;5140131;27;20481;-60
2021/06/19 10:32:52;;;;;;;4.90;1.43;;;;;;;;;;5141385;27;20456;-58
2021/06/19 10:35:20;;;;;;;5.77;2.17;;;;;;;;;;5132939;28;20457;-60
2021/06/19 10:37:49;;;;;;;3.60;1.43;;;;;;;;;;5155120;27;20451;-57
2021/06/19 10:40:18;;;;;;;3.83;1.30;;;;;;;;;;5154722;27;20548;-57
2021/06/19 10:42:45;;;;;;;4.40;1.47;;;;;;;;;;5142117;27;20450;-51
2021/06/19 10:45:47;;;;;;;4.30;1.37;;;;;;;;;;5136855;28;20462;-58
2021/06/19 10:48:16;;;;;;;3.20;1.80;;;;;;;;;;5153605;27;20481;-55
2021/06/19 10:50:47;;;;;;;3.00;1.30;;;;;;;;;;5148887;27;20445;-56
2021/06/19 10:53:36;;;;;;;5.70;2.07;;;;;;;;;;5134827;27;20733;-53
2021/06/19 10:56:03;;;;;;;5.03;2.10;;;;;;;;;;5140193;27;20438;-58
2021/06/19 10:58:33;;;;;;;3.90;1.50;;;;;;;;;;5148435;27;20442;-56
2021/06/19 11:01:04;;;;;;;4.73;1.60;;;;;;;;;;5136005;28;20449;-58
2021/06/19 11:03:45;;;;;;;3.60;1.43;;;;;;;;;;5136383;27;20473;-52
2021/06/19 11:06:29;;;;;;;3.27;1.47;;;;;;;;;;5142531;27;20537;-54
2021/06/19 11:09:10;;;;;;;4.30;2.03;;;;;;;;;;5156196;27;20481;-58
2021/06/19 11:11:48;;;;;;;4.60;1.40;;;;;;;;;;5156531;27;20480;-55
2021/06/19 11:14:54;;;;;;;4.83;1.87;;;;;;;;;;5156855;27;20452;-57
2021/06/19 11:17:55;;;;;;;4.40;1.30;;;;;;;;;;5149234;27;20539;-59
2021/06/19 11:20:27;;;;;;;5.67;1.80;;;;;;;;;;5135806;28;20484;-56
2021/06/19 11:23:03;;;;;;;4.30;2.13;;;;;;;;;;5136252;27;20442;-60
2021/06/19 11:25:54;;;;;;;3.43;1.50;;;;;;;;;;5143471;27;20477;-61
2021/06/19 11:28:34;;;;;;;5.03;2.40;;;;;;;;;;5151764;27;20492;-58
2021/06/19 11:31:34;;;;;;;3.53;1.70;;;;;;;;;;5138955;27;20442;-54
2021/06/19 11:34:07;;;;;;;6.13;2.33;;;;;;;;;;5147692;27;20469;-50
2021/06/19 11:37:06;;;;;;;5.63;1.70;;;;;;;;;;5142566;27;20459;-61
2021/06/19 11:45:17;;;;;;;7.10;4.00;;;;;;;;;;5131196;28;20445;-60
2021/06/19 11:51:35;;;;;;;4.77;1.83;;;;;;;;;;5132855;27;20438;-60
2021/06/19 11:54:10;;;;;;;6.33;2.83;;;;;;;;;;5134049;28;20454;-60
2021/06/19 11:56:44;;;;;;;3.10;1.60;;;;;;;;;;5143011;27;20664;-56
2021/06/19 11:59:14;;;;;;;3.30;1.50;;;;;;;;;;5151595;28;20440;-54
2021/06/19 12:01:42;;;;;;;5.60;2.00;;;;;;;;;;5142735;28;20468;-62
2021/06/19 12:04:11;;;;;;;9.80;2.30;;;;;;;;;;5151501;28;20446;-58
2021/06/19 12:06:41;;;;;;;3.73;1.80;;;;;;;;;;5142507;28;20457;-56
2021/06/19 12:09:12;;;;;;;4.67;2.17;;;;;;;;;;5145914;28;20493;-57
2021/06/19 12:11:41;;;;;;;7.77;3.00;;;;;;;;;;5141314;28;20680;-58
2021/06/19 12:14:18;;;;;;;3.77;1.67;;;;;;;;;;5146282;28;20434;-54
2021/06/19 12:16:49;;;;;;;4.40;1.67;;;;;;;;;;5133574;27;20510;-60
2021/06/19 12:19:17;;;;;;;6.67;1.90;;;;;;;;;;5138027;28;20437;-58
2021/06/19 12:22:08;;;;;;;3.83;1.87;;;;;;;;;;5152271;27;20442;-61
2021/06/19 12:24:39;;;;;;;7.73;2.23;;;;;;;;;;5145458;27;20451;-58
2021/06/19 12:27:14;;;;;;;4.80;3.20;;;;;;;;;;5137466;28;20486;-61
2021/06/19 12:29:49;;;;;;;7.77;3.47;;;;;;;;;;5149958;27;20486;-57
2021/06/19 12:32:27;;;;;;;5.90;2.70;;;;;;;;;;5152624;27;20497;-59
2021/06/19 12:35:07;;;;;;;4.10;2.47;;;;;;;;;;5159593;27;20511;-57
2021/06/19 12:37:35;;;;;;;5.10;2.47;;;;;;;;;;5158164;27;20463;-57
2021/06/19 12:40:05;;;;;;;6.83;2.60;;;;;;;;;;5158020;27;20483;-52
2021/06/19 12:42:38;;;;;;;11.80;2.10;;;;;;;;;;5155636;27;20465;-57
2021/06/19 12:48:08;;;;;;;4.40;1.70;;;;;;;;;;5135766;28;20521;-57
2021/06/19 12:50:40;;;;;;;5.87;2.37;;;;;;;;;;5147071;27;20481;-56
2021/06/19 12:53:09;;;;;;;4.90;2.00;;;;;;;;;;5124237;27;20530;-58
2021/06/19 12:55:49;;;;;;;4.20;2.20;;;;;;;;;;5144958;27;20780;-58
2021/06/19 12:58:18;;;;;;;4.03;1.50;;;;;;;;;;5149731;27;20457;-54
2021/06/19 13:00:49;;;;;;;3.83;1.63;;;;;;;;;;5146581;27;20531;-55
2021/06/19 13:03:43;;;;;;;7.13;2.37;;;;;;;;;;5154942;27;20442;-56
2021/06/19 13:06:20;;;;;;;4.77;1.87;;;;;;;;;;5139542;27;20450;-53
2021/06/19 13:09:23;;;;;;;4.00;1.97;;;;;;;;;;5138521;28;20461;-53
2021/06/19 13:11:59;;;;;;;4.00;1.70;;;;;;;;;;5150612;27;20464;-55
2021/06/19 13:14:27;;;;;;;3.60;1.30;;;;;;;;;;5142172;27;20437;-59
2021/06/19 13:16:56;;;;;;;3.70;1.80;;;;;;;;;;5150301;27;20438;-56
2021/06/19 13:19:39;;;;;;;3.67;2.10;;;;;;;;;;5156414;27;20816;-59
2021/06/19 13:22:27;;;;;;;4.57;2.10;;;;;;;;;;5136693;27;20433;-52
2021/06/19 13:24:59;;;;;;;3.60;1.60;;;;;;;;;;5150980;27;20461;-57
2021/06/19 13:27:29;;;;;;;6.30;2.70;;;;;;;;;;5121456;27;20880;-54
2021/06/19 13:30:20;;;;;;;7.07;3.13;;;;;;;;;;5150468;27;20489;-59
2021/06/19 13:32:58;;;;;;;5.60;3.80;;;;;;;;;;5147560;27;20477;-57
2021/06/19 13:35:25;;;;;;;7.63;2.40;;;;;;;;;;5156940;27;20441;-58
2021/06/19 13:37:59;;;;;;;4.43;1.80;;;;;;;;;;5151487;27;20457;-59
2021/06/19 13:40:39;;;;;;;4.63;2.27;;;;;;;;;;5145921;27;20541;-59
2021/06/19 13:43:08;;;;;;;5.00;2.33;;;;;;;;;;5147297;27;20469;-58
2021/06/19 13:45:35;;;;;;;4.63;2.13;;;;;;;;;;5139776;27;20545;-53
2021/06/19 13:48:13;;;;;;;3.80;2.13;;;;;;;;;;5155587;27;20479;-57
2021/06/19 13:50:41;;;;;;;5.10;1.77;;;;;;;;;;5151357;27;20489;-58
2021/06/19 13:53:08;;;;;;;6.10;2.47;;;;;;;;;;5150396;27;20592;-56
2021/06/19 13:55:36;;;;;;;4.47;2.50;;;;;;;;;;5151794;27;20461;-58
2021/06/19 13:58:08;;;;;;;5.07;2.20;;;;;;;;;;5152278;27;20471;-57
2021/06/19 14:01:00;;;;;;;5.60;3.00;;;;;;;;;;5145398;27;20441;-58
2021/06/19 14:03:29;;;;;;;5.47;2.40;;;;;;;;;;5145360;27;20461;-55
2021/06/19 14:06:03;;;;;;;6.90;2.50;;;;;;;;;;5144696;27;20498;-57
2021/06/19 14:08:45;;;;;;;3.87;2.33;;;;;;;;;;5135660;28;20445;-56
2021/06/19 14:11:19;;;;;;;6.10;3.00;;;;;;;;;;5144770;27;20449;-57
2021/06/19 14:14:03;;;;;;;11.30;4.20;;;;;;;;;;5147354;27;20465;-56
2021/06/19 14:19:56;;;;;;;5.47;2.67;;;;;;;;;;5134557;27;20430;-52
2021/06/19 14:22:23;;;;;;;10.10;3.30;;;;;;;;;;5140903;27;20523;-60
2021/06/19 14:24:51;;;;;;;5.70;2.77;;;;;;;;;;5140168;27;20462;-56
2021/06/19 14:27:23;;;;;;;5.97;4.07;;;;;;;;;;5148322;27;20457;-53
2021/06/19 14:29:51;;;;;;;5.13;2.60;;;;;;;;;;5138405;27;20481;-51
2021/06/19 14:32:36;;;;;;;4.90;1.83;;;;;;;;;;5134099;27;20552;-57
2021/06/19 14:37:47;;;;;;;4.83;2.50;;;;;;;;;;5133156;27;20751;-52
2021/06/19 14:40:15;;;;;;;4.27;2.23;;;;;;;;;;5144487;27;20500;-53
2021/06/19 14:42:57;;;;;;;4.40;2.20;;;;;;;;;;5135979;27;20462;-60
2021/06/19 14:45:25;;;;;;;5.13;2.97;;;;;;;;;;5143471;27;20482;-56
2021/06/19 14:47:53;;;;;;;8.90;2.37;;;;;;;;;;5150175;27;20442;-57
2021/06/19 14:50:22;;;;;;;6.20;1.80;;;;;;;;;;5135932;27;20474;-57
2021/06/19 14:52:50;;;;;;;6.93;3.33;;;;;;;;;;5138617;27;20447;-56
2021/06/19 14:55:18;;;;;;;3.80;2.20;;;;;;;;;;5142774;27;20462;-58
2021/06/19 14:57:48;;;;;;;5.10;3.23;;;;;;;;;;5141035;27;20461;-55
2021/06/19 15:00:19;;;;;;;6.30;2.43;;;;;;;;;;5150730;27;20489;-54
2021/06/19 15:02:48;;;;;;;7.70;3.07;;;;;;;;;;5152758;27;20453;-57
2021/06/19 15:11:06;;;;;;;6.80;3.43;;;;;;;;;;5138719;27;20481;-58
2021/06/19 15:13:34;;;;;;;5.50;3.20;;;;;;;;;;5140648;27;20474;-55
2021/06/19 15:16:04;;;;;;;4.13;2.40;;;;;;;;;;5133541;27;20500;-55
2021/06/19 15:18:39;;;;;;;5.07;2.43;;;;;;;;;;5148448;27;20524;-52
2021/06/19 15:21:08;;;;;;;6.17;2.70;;;;;;;;;;5148776;27;20494;-54
2021/06/19 15:23:37;;;;;;;8.10;3.80;;;;;;;;;;5140890;27;20484;-53
2021/06/19 15:26:13;;;;;;;9.90;5.80;;;;;;;;;;5141910;27;20518;-55
2021/06/19 15:28:41;;;;;;;9.97;3.53;;;;;;;;;;5141886;27;20491;-58
2021/06/19 15:31:08;;;;;;;7.53;4.20;;;;;;;;;;5137937;27;20534;-57
2021/06/19 15:36:39;;;;;;;7.80;4.97;;;;;;;;;;5148411;27;20428;-53
2021/06/19 15:39:13;;;;;;;5.57;3.13;;;;;;;;;;5137248;28;20443;-57
2021/06/19 15:41:41;;;;;;;6.57;4.03;;;;;;;;;;5124509;28;20471;-57
2021/06/19 15:44:10;;;;;;;5.83;3.50;;;;;;;;;;5145723;28;20461;-52
2021/06/19 15:46:43;;;;;;;8.73;5.80;;;;;;;;;;5154327;28;20422;-58
2021/06/19 15:49:14;;;;;;;10.40;6.13;;;;;;;;;;5153464;28;20499;-58
2021/06/19 15:51:41;;;;;;;7.60;6.27;;;;;;;;;;5139272;28;20442;-56
2021/06/19 15:54:12;;;;;;;5.80;4.13;;;;;;;;;;5153411;28;20433;-57
2021/06/19 15:56:42;;;;;;;6.03;3.90;;;;;;;;;;5154704;28;20445;-55
2021/06/19 15:59:16;;;;;;;6.70;3.63;;;;;;;;;;5139290;28;20482;-58
2021/06/19 16:01:43;;;;;;;7.23;4.27;;;;;;;;;;5153744;27;20477;-51